Time;durP1;ratioP1;P1;durP2;ratioP2;P2;SDS_P1;SDS_P2;PMS_P1;PMS_P2;Temp;Humidity;BMP_temperature;BMP_pressure;BME280_temperature;BME280_humidity;BME280_pressure;Samples;Min_cycle;Max_cycle;Signal;HPM_P1;HPM_P2
2024/03/22 00:02:14;;;;;;;14.40;10.65;;;;;;;7.81;100.00;100504.84;5027868;28;20403;-70
2024/03/22 00:04:39;;;;;;;13.68;11.32;;;;;;;7.46;100.00;100557.41;5010332;28;20030;-70
2024/03/22 00:07:04;;;;;;;13.35;10.65;;;;;;;6.93;100.00;100413.63;5026570;28;20121;-70
2024/03/22 00:09:30;;;;;;;14.80;10.23;;;;;;;7.60;100.00;100559.00;5028160;28;20029;-69
2024/03/22 00:11:55;;;;;;;12.25;9.77;;;;;;;7.60;100.00;100535.38;5027730;28;20056;-70
2024/03/22 00:14:21;;;;;;;12.25;10.23;;;;;;;7.29;100.00;100432.75;5027522;28;20422;-70
2024/03/22 00:16:46;;;;;;;12.52;10.15;;;;;;;7.29;100.00;100506.09;5030346;28;20045;-70
2024/03/22 00:19:12;;;;;;;14.20;10.68;;;;;;;7.07;100.00;100567.72;5031933;28;20018;-72
2024/03/22 00:21:37;;;;;;;15.00;11.05;;;;;;;6.77;100.00;100460.84;5014470;28;20091;-69
2024/03/22 00:24:07;;;;;;;16.08;10.40;;;;;;;7.06;100.00;100450.59;5012796;28;20407;-72
2024/03/22 00:26:33;;;;;;;12.20;10.10;;;;;;;7.63;100.00;100503.31;5031928;28;20099;-70
2024/03/22 00:28:58;;;;;;;12.75;10.80;;;;;;;7.20;100.00;100498.53;5031305;28;20026;-70
2024/03/22 00:31:24;;;;;;;20.10;15.48;;;;;;;7.36;100.00;100495.06;5031609;28;20121;-70
2024/03/22 00:33:49;;;;;;;13.45;11.13;;;;;;;6.72;100.00;100464.25;5031241;28;20069;-71
2024/03/22 00:36:15;;;;;;;15.07;11.40;;;;;;;7.44;100.00;100544.75;5013390;28;20025;-69
2024/03/22 00:38:40;;;;;;;14.73;12.57;;;;;;;6.99;100.00;100416.94;5030969;28;20515;-69
2024/03/22 00:41:06;;;;;;;17.88;13.80;;;;;;;6.75;100.00;100553.53;5013029;28;20040;-69
2024/03/22 00:43:32;;;;;;;19.27;14.43;;;;;;;7.29;100.00;100538.97;5031329;28;20025;-69
2024/03/22 00:45:58;;;;;;;25.23;17.35;;;;;;;6.39;100.00;100471.97;5031000;28;20396;-70
2024/03/22 00:48:24;;;;;;;19.65;13.98;;;;;;;6.83;100.00;100592.22;5013673;28;20502;-71
2024/03/22 00:50:49;;;;;;;17.73;13.40;;;;;;;6.41;100.00;100543.50;5031111;28;20021;-74
2024/03/22 00:53:15;;;;;;;22.50;15.80;;;;;;;6.58;100.00;100630.16;5029871;28;20095;-70
2024/03/22 00:55:40;;;;;;;18.77;14.32;;;;;;;6.80;100.00;100637.72;5030865;28;20514;-69
2024/03/22 00:58:05;;;;;;;23.50;15.10;;;;;;;6.70;100.00;100656.28;5030019;28;20041;-70
2024/03/22 01:00:31;;;;;;;17.15;13.70;;;;;;;6.17;100.00;100682.38;5030542;28;20045;-69
2024/03/22 01:02:56;;;;;;;18.13;12.90;;;;;;;5.27;100.00;100515.72;5031181;28;20492;-69
2024/03/22 01:05:22;;;;;;;20.20;14.15;;;;;;;6.17;100.00;100713.50;5030593;28;20036;-69
2024/03/22 01:07:47;;;;;;;19.95;14.65;;;;;;;6.44;100.00;100700.91;5012737;28;20111;-68
2024/03/22 01:10:13;;;;;;;18.63;14.15;;;;;;;5.78;100.00;100632.66;5031213;28;20040;-69
2024/03/22 01:12:39;;;;;;;19.10;15.00;;;;;;;6.22;100.00;100737.06;5012863;28;20108;-70
2024/03/22 01:15:06;;;;;;;19.23;14.25;;;;;;;6.42;100.00;100697.53;5030543;28;20030;-68
2024/03/22 01:17:32;;;;;;;21.92;14.60;;;;;;;6.19;100.00;100777.47;5029062;28;20038;-68
2024/03/22 01:19:57;;;;;;;19.70;13.93;;;;;;;6.63;100.00;100725.34;5012860;28;20033;-68
2024/03/22 01:22:23;;;;;;;16.98;12.93;;;;;;;6.15;100.00;100667.22;5030310;28;20029;-69
2024/03/22 01:24:49;;;;;;;16.40;12.65;;;;;;;6.70;100.00;100756.47;5012983;28;20467;-68
2024/03/22 01:27:14;;;;;;;18.70;11.75;;;;;;;6.59;100.00;100788.47;5030637;28;20131;-70
2024/03/22 01:29:40;;;;;;;15.30;11.07;;;;;;;6.62;100.00;100774.16;5030064;28;20029;-69
2024/03/22 01:32:05;;;;;;;14.77;11.48;;;;;;;5.75;100.00;100588.09;5012241;28;20566;-69
2024/03/22 01:34:31;;;;;;;15.45;11.95;;;;;;;6.74;100.00;100770.78;5029103;28;20033;-68
2024/03/22 01:36:56;;;;;;;14.27;11.55;;;;;;;6.11;100.00;100699.19;5029651;28;20029;-69
2024/03/22 01:39:22;;;;;;;14.82;11.30;;;;;;;5.93;100.00;100684.03;5029756;28;20021;-69
2024/03/22 01:41:48;;;;;;;11.55;8.95;;;;;;;6.15;100.00;100813.63;5030679;28;20048;-74
2024/03/22 01:44:13;;;;;;;9.75;7.60;;;;;;;5.35;100.00;100719.91;5031383;28;20091;-70
2024/03/22 01:46:44;;;;;;;8.25;6.18;;;;;;;5.59;100.00;100847.78;5029837;28;20033;-69
2024/03/22 01:49:11;;;;;;;6.90;5.22;;;;;;;4.87;100.00;100715.44;5012201;28;20040;-67
2024/03/22 01:51:37;;;;;;;6.80;5.15;;;;;;;5.73;100.00;100821.81;5030349;28;20033;-70
2024/03/22 01:54:04;;;;;;;3.45;2.92;;;;;;;5.92;100.00;100737.84;5011147;28;20056;-69
2024/03/22 01:56:30;;;;;;;4.15;2.85;;;;;;;6.13;100.00;100646.19;5029650;28;20042;-70
2024/03/22 01:58:56;;;;;;;4.90;2.88;;;;;;;6.38;100.00;100624.31;5012018;28;20030;-69
2024/03/22 02:01:23;;;;;;;3.22;2.50;;;;;;;6.02;100.00;100466.19;5029505;28;20069;-68
2024/03/22 02:03:48;;;;;;;3.35;2.17;;;;;;;6.45;100.00;100497.22;5028751;28;20025;-69
2024/03/22 02:06:14;;;;;;;2.95;2.00;;;;;;;5.85;100.00;100356.88;5011171;28;20036;-69
2024/03/22 02:08:41;;;;;;;2.72;1.95;;;;;;;5.99;100.00;100347.59;5011732;28;20034;-71
2024/03/22 02:11:07;;;;;;;2.58;1.90;;;;;;;5.86;100.00;100343.44;5029776;28;20053;-70
2024/03/22 02:13:33;;;;;;;2.67;1.98;;;;;;;5.88;100.00;100307.25;5029120;28;20459;-70
2024/03/22 02:15:58;;;;;;;2.72;2.10;;;;;;;5.99;100.00;100334.97;5029284;28;20025;-69
2024/03/22 02:18:24;;;;;;;2.75;1.80;;;;;;;5.99;100.00;100269.38;5029672;28;20033;-71
2024/03/22 02:20:49;;;;;;;2.42;1.70;;;;;;;6.33;100.00;100189.25;5011916;28;20036;-69
2024/03/22 02:23:14;;;;;;;2.38;1.90;;;;;;;6.62;100.00;100349.81;5012254;28;20492;-71
2024/03/22 02:25:40;;;;;;;2.97;2.67;;;;;;;6.70;100.00;100364.91;5029070;28;20040;-69
2024/03/22 02:28:05;;;;;;;2.20;1.80;;;;;;;6.90;100.00;100363.94;5027669;28;20471;-69
2024/03/22 02:30:31;;;;;;;2.08;1.73;;;;;;;6.97;100.00;100392.53;5028058;28;20022;-69
2024/03/22 02:32:56;;;;;;;2.03;1.70;;;;;;;6.20;100.00;100314.69;5029064;28;20133;-70
2024/03/22 02:35:21;;;;;;;2.90;2.20;;;;;;;6.14;100.00;100343.31;5029262;28;20471;-74
2024/03/22 02:37:47;;;;;;;2.42;1.90;;;;;;;6.77;100.00;100439.84;5011246;28;20063;-70
2024/03/22 02:40:12;;;;;;;2.63;2.10;;;;;;;6.71;100.00;100476.06;5028424;28;20422;-70
2024/03/22 02:42:38;;;;;;;2.55;1.92;;;;;;;6.23;100.00;100374.41;5011644;28;20498;-69
2024/03/22 02:45:04;;;;;;;2.75;1.98;;;;;;;5.90;100.00;100337.53;5028598;28;20034;-70
2024/03/22 02:47:29;;;;;;;2.58;1.70;;;;;;;6.50;100.00;100481.19;5015864;28;20032;-70
2024/03/22 02:49:54;;;;;;;2.75;2.15;;;;;;;5.97;100.00;100393.03;5029273;28;20065;-69
2024/03/22 02:52:20;;;;;;;2.75;2.10;;;;;;;6.32;100.00;100483.75;5011245;28;20033;-69
2024/03/22 02:54:45;;;;;;;2.83;2.00;;;;;;;6.49;100.00;100449.22;5001848;28;20048;-72
2024/03/22 02:57:11;;;;;;;2.33;1.73;;;;;;;6.27;100.00;100436.66;4988666;28;20496;-70
2024/03/22 02:59:36;;;;;;;2.50;2.00;;;;;;;5.76;100.00;100362.78;4989191;28;20397;-69
2024/03/22 03:02:02;;;;;;;2.72;1.95;;;;;;;5.44;100.00;100298.13;4989442;28;20507;-69
2024/03/22 03:04:27;;;;;;;2.58;2.20;;;;;;;5.65;100.00;100293.03;4989360;28;20413;-69
2024/03/22 03:06:53;;;;;;;6.35;4.30;;;;;;;6.00;100.00;100533.47;4987681;28;20034;-69
2024/03/22 03:09:18;;;;;;;6.43;4.50;;;;;;;5.67;100.00;100493.94;4988307;28;20056;-69
2024/03/22 03:11:44;;;;;;;7.07;4.75;;;;;;;5.75;100.00;100537.66;4988868;28;20109;-69
2024/03/22 03:14:09;;;;;;;7.07;5.43;;;;;;;5.71;100.00;100485.53;4989191;28;20491;-68
2024/03/22 03:16:35;;;;;;;7.13;5.20;;;;;;;5.93;100.00;100522.53;4986124;28;20653;-72
2024/03/22 03:19:00;;;;;;;7.00;5.40;;;;;;;5.21;100.00;100447.69;4986847;28;20148;-69
2024/03/22 03:21:25;;;;;;;6.65;5.05;;;;;;;5.26;100.00;100572.03;4988122;28;20405;-70
2024/03/22 03:23:51;;;;;;;7.75;5.35;;;;;;;5.07;100.00;100534.19;4988607;28;20026;-72
2024/03/22 03:26:17;;;;;;;7.07;5.40;;;;;;;5.41;100.00;100543.47;4987704;28;20485;-69
2024/03/22 03:28:46;;;;;;;6.22;5.15;;;;;;;5.07;100.00;100575.31;4989119;28;20141;-69
2024/03/22 03:31:12;;;;;;;7.63;5.47;;;;;;;4.44;100.00;100484.38;4985828;28;20072;-69
2024/03/22 03:33:37;;;;;;;7.38;5.22;;;;;;;4.59;100.00;100491.16;4987268;28;20432;-68
2024/03/22 03:36:03;;;;;;;6.70;5.10;;;;;;;4.53;100.00;100433.25;4986713;28;20149;-71
2024/03/22 03:38:28;;;;;;;6.88;4.70;;;;;;;4.60;100.00;100493.69;4986874;28;20030;-69
2024/03/22 03:40:53;;;;;;;6.75;4.68;;;;;;;4.23;100.00;100361.00;4988850;28;20041;-71
2024/03/22 03:43:19;;;;;;;5.65;4.22;;;;;;;5.35;100.00;100551.03;4984671;28;20038;-69
2024/03/22 03:45:44;;;;;;;6.88;4.30;;;;;;;5.44;100.00;100570.38;4986807;28;20472;-69
2024/03/22 03:48:10;;;;;;;4.80;3.75;;;;;;;5.19;100.00;100524.94;4986346;28;20073;-71
2024/03/22 03:50:35;;;;;;;4.93;3.72;;;;;;;5.39;100.00;100542.63;4987739;28;20030;-69
2024/03/22 03:53:00;;;;;;;5.00;3.38;;;;;;;5.71;100.00;100513.25;4990106;28;20424;-69
2024/03/22 03:55:26;;;;;;;5.93;4.22;;;;;;;5.24;100.00;100540.09;5000075;28;20046;-76
2024/03/22 03:57:52;;;;;;;6.55;4.90;;;;;;;5.40;100.00;100599.78;5010535;28;20034;-71
2024/03/22 04:00:19;;;;;;;7.90;4.88;;;;;;;4.85;100.00;100466.94;5009735;28;20033;-70
2024/03/22 04:02:45;;;;;;;7.00;4.90;;;;;;;5.54;100.00;100531.75;5010751;28;20561;-72
2024/03/22 04:05:10;;;;;;;7.60;4.57;;;;;;;4.43;100.00;100429.00;5009417;28;20116;-72
2024/03/22 04:07:36;;;;;;;8.68;4.90;;;;;;;4.35;100.00;100364.41;5008865;28;20536;-70
2024/03/22 04:10:02;;;;;;;5.53;4.13;;;;;;;5.24;100.00;100401.50;5009601;28;20536;-74
2024/03/22 04:12:29;;;;;;;6.05;4.03;;;;;;;6.06;100.00;100498.97;5023903;28;20124;-71
2024/03/22 04:14:54;;;;;;;4.72;3.60;;;;;;;5.86;100.00;100487.25;5010463;28;20041;-73
2024/03/22 04:17:19;;;;;;;5.72;4.43;;;;;;;5.33;100.00;100405.69;5009842;28;20041;-70
2024/03/22 04:19:45;;;;;;;66.70;33.67;;;;;;;5.14;100.00;100576.19;5008541;28;20029;-71
2024/03/22 04:22:10;;;;;;;27.23;17.05;;;;;;;4.54;100.00;100491.16;5010047;28;20443;-71
2024/03/22 04:24:36;;;;;;;16.88;11.43;;;;;;;4.29;100.00;100665.47;5010111;28;20443;-69
2024/03/22 04:27:01;;;;;;;9.48;6.60;;;;;;;3.92;100.00;100668.50;5011011;28;20038;-70
2024/03/22 04:29:27;;;;;;;11.90;6.63;;;;;;;4.63;100.00;100690.09;5010378;28;20077;-71
2024/03/22 04:31:53;;;;;;;7.85;6.00;;;;;;;4.55;100.00;100696.75;5010225;28;20034;-71
2024/03/22 04:34:18;;;;;;;7.95;5.28;;;;;;;4.69;100.00;100680.06;5015437;28;20092;-70
2024/03/22 04:36:44;;;;;;;7.70;5.57;;;;;;;4.43;100.00;100684.06;5019548;28;20042;-71
2024/03/22 04:39:11;;;;;;;6.45;4.60;;;;;;;3.90;100.00;100635.78;5010057;28;20026;-72
2024/03/22 04:41:37;;;;;;;7.72;5.35;;;;;;;3.97;100.00;100609.03;5008406;28;20057;-71
2024/03/22 04:44:03;;;;;;;8.73;5.43;;;;;;;4.34;100.00;100664.69;5009284;28;20472;-70
2024/03/22 04:46:28;;;;;;;7.95;5.38;;;;;;;4.50;100.00;100567.47;5008863;28;20034;-70
2024/03/22 04:48:54;;;;;;;6.82;5.10;;;;;;;6.64;100.00;100478.59;5009124;28;20032;-69
2024/03/22 04:51:25;;;;;;;6.95;4.68;;;;;;;5.57;100.00;100583.00;5010812;28;20041;-69
2024/03/22 04:53:51;;;;;;;;;;;;;;;5.63;100.00;100580.50;5010830;28;20037;-69
2024/03/22 04:56:16;;;;;;;6.38;4.60;;;;;;;4.90;100.00;100458.53;5028194;28;19921;-70
2024/03/22 04:58:41;;;;;;;6.82;5.25;;;;;;;5.44;100.00;100628.38;5014929;28;20482;-69
2024/03/22 05:01:07;;;;;;;9.20;5.88;;;;;;;5.11;100.00;100498.91;5029847;28;20041;-69
2024/03/22 05:03:32;;;;;;;7.25;5.20;;;;;;;4.15;100.00;100699.75;5011338;28;20569;-72
2024/03/22 05:05:58;;;;;;;8.98;6.93;;;;;;;3.76;100.00;100606.31;5029246;28;20047;-72
2024/03/22 05:08:23;;;;;;;10.77;8.02;;;;;;;4.39;100.00;100713.41;5011363;28;20565;-71
2024/03/22 05:10:49;;;;;;;8.73;6.28;;;;;;;5.15;100.00;100653.47;5012600;28;20025;-69
2024/03/22 05:13:14;;;;;;;6.85;5.13;;;;;;;3.93;100.00;100484.09;5029483;28;20111;-69
2024/03/22 05:15:39;;;;;;;7.57;5.55;;;;;;;5.00;100.00;100570.25;5027851;28;20037;-70
2024/03/22 05:18:05;;;;;;;6.13;5.10;;;;;;;5.07;100.00;100487.13;5014796;28;20048;-70
2024/03/22 05:20:30;;;;;;;6.22;4.40;;;;;;;5.60;100.00;100572.09;5014514;28;20037;-72
2024/03/22 05:22:56;;;;;;;6.28;4.90;;;;;;;5.74;100.00;100581.38;5029379;28;20035;-73
2024/03/22 05:25:21;;;;;;;7.72;5.93;;;;;;;4.61;100.00;100467.69;5029219;28;20037;-71
2024/03/22 05:27:47;;;;;;;9.85;7.05;;;;;;;5.29;100.00;100488.00;5013807;28;20052;-70
2024/03/22 05:30:13;;;;;;;11.98;7.63;;;;;;;5.32;100.00;100465.34;5014768;28;20124;-70
2024/03/22 05:32:40;;;;;;;11.35;8.35;;;;;;;6.64;100.00;100509.75;5012539;28;20415;-69
2024/03/22 05:35:07;;;;;;;12.52;8.20;;;;;;;5.92;100.00;100382.09;5028765;28;20033;-70
2024/03/22 05:37:33;;;;;;;18.30;9.80;;;;;;;6.68;100.00;100342.19;5028857;28;20488;-70
2024/03/22 05:40:00;;;;;;;10.82;8.07;;;;;;;6.72;100.00;100257.97;5013196;28;20492;-77
2024/03/22 05:42:26;;;;;;;13.88;10.68;;;;;;;7.89;100.00;100406.91;5029794;28;20427;-70
2024/03/22 05:44:52;;;;;;;14.05;9.38;;;;;;;7.70;100.00;100405.41;5012112;28;20042;-71
2024/03/22 05:47:18;;;;;;;11.02;8.27;;;;;;;7.90;100.00;100260.09;5029173;28;20029;-74
2024/03/22 05:49:44;;;;;;;14.48;8.45;;;;;;;7.89;100.00;100313.25;5027801;28;20029;-71
2024/03/22 05:52:09;;;;;;;11.48;7.55;;;;;;;7.58;100.00;100239.41;5029391;28;20021;-69
2024/03/22 05:54:35;;;;;;;9.25;6.75;;;;;;;8.79;100.00;100344.16;5010097;28;20083;-71
2024/03/22 05:57:02;;;;;;;7.97;6.60;;;;;;;8.70;100.00;100374.69;5029229;28;20095;-72
2024/03/22 05:59:27;;;;;;;7.55;6.13;;;;;;;8.91;100.00;100340.59;5029316;28;20029;-75
2024/03/22 06:01:53;;;;;;;7.95;5.95;;;;;;;8.72;100.00;100441.41;5028746;28;20037;-71
2024/03/22 06:04:18;;;;;;;8.65;5.45;;;;;;;8.88;100.00;100366.84;5028380;28;20037;-71
2024/03/22 06:06:43;;;;;;;8.88;5.13;;;;;;;8.59;100.00;100329.25;5010709;28;20041;-70
2024/03/22 06:09:11;;;;;;;6.68;4.10;;;;;;;8.60;100.00;100272.63;5011535;28;20030;-70
2024/03/22 06:11:36;;;;;;;5.47;4.30;;;;;;;8.39;100.00;100502.63;5029979;28;20029;-70
2024/03/22 06:14:02;;;;;;;5.93;3.97;;;;;;;9.67;100.00;100434.03;5028446;28;20573;-71
2024/03/22 06:16:27;;;;;;;7.10;5.20;;;;;;;9.61;100.00;100493.38;5029070;28;20033;-70
2024/03/22 06:18:53;;;;;;;10.95;7.90;;;;;;;9.69;100.00;100473.78;5028572;28;20025;-70
2024/03/22 06:21:25;;;;;;;13.35;8.57;;;;;;;8.81;100.00;100430.31;5029040;28;20494;-72
2024/03/22 06:23:51;;;;;;;12.23;9.23;;;;;;;8.27;100.00;100406.50;5028770;28;20045;-70
2024/03/22 06:26:17;;;;;;;10.88;8.68;;;;;;;9.65;100.00;100506.88;5029312;28;20036;-71
2024/03/22 06:28:43;;;;;;;10.48;8.27;;;;;;;9.74;100.00;100362.00;5029520;28;20415;-71
2024/03/22 06:31:08;;;;;;;10.70;8.18;;;;;;;9.38;100.00;100396.47;5028832;28;20029;-71
2024/03/22 06:33:34;;;;;;;10.60;7.32;;;;;;;10.68;100.00;100455.84;5011425;28;20021;-71
2024/03/22 06:36:03;;;;;;;8.55;6.43;;;;;;;10.70;100.00;100364.28;5029371;28;20116;-76
2024/03/22 06:38:28;;;;;;;6.47;5.50;;;;;;;10.42;100.00;100603.81;5029414;28;20087;-70
2024/03/22 06:40:53;;;;;;;7.45;6.10;;;;;;;10.18;100.00;100496.69;5011234;28;20037;-75
2024/03/22 06:43:19;;;;;;;7.95;6.07;;;;;;;11.05;100.00;100578.06;5028068;28;20557;-70
2024/03/22 06:45:44;;;;;;;6.80;6.10;;;;;;;9.82;100.00;100545.53;5011428;28;20029;-70
2024/03/22 06:48:10;;;;;;;7.70;5.50;;;;;;;10.58;100.00;100628.97;5010843;28;20454;-71
2024/03/22 06:50:35;;;;;;;7.72;5.53;;;;;;;10.50;100.00;100674.84;5011115;28;20575;-70
2024/03/22 06:53:00;;;;;;;7.25;6.00;;;;;;;10.74;100.00;100597.28;5029156;28;20419;-73
2024/03/22 06:55:26;;;;;;;6.45;4.80;;;;;;;11.51;100.00;100601.66;5028853;28;20057;-71
2024/03/22 06:57:52;;;;;;;5.38;4.32;;;;;;;11.18;100.00;100682.09;5028220;28;20430;-71
2024/03/22 07:00:18;;;;;;;5.43;4.00;;;;;;;10.99;100.00;100618.88;5028616;28;20032;-70
2024/03/22 07:02:45;;;;;;;6.00;4.85;;;;;;;11.53;100.00;100762.06;5028656;28;20038;-71
2024/03/22 07:05:11;;;;;;;7.15;5.43;;;;;;;11.82;100.00;100765.75;5028209;28;20037;-73
2024/03/22 07:07:37;;;;;;;6.50;4.88;;;;;;;12.34;100.00;100644.78;5028944;28;20044;-70
2024/03/22 07:10:05;;;;;;;6.65;5.00;;;;;;;12.22;100.00;100661.22;5010888;28;20037;-76
2024/03/22 07:12:30;;;;;;;8.65;6.68;;;;;;;11.85;100.00;100821.72;5028867;28;20037;-69
2024/03/22 07:14:56;;;;;;;12.43;8.27;;;;;;;12.24;100.00;100700.22;5010697;28;20028;-70
2024/03/22 07:17:24;;;;;;;14.73;5.93;;;;;;;11.92;100.00;100725.63;5030201;28;20095;-70
2024/03/22 07:19:53;;;;;;;7.30;5.60;;;;;;;12.18;100.00;100866.91;5022745;28;20091;-70
2024/03/22 07:22:19;;;;;;;5.57;4.95;;;;;;;12.02;100.00;100882.56;5036403;28;20511;-70
2024/03/22 07:24:44;;;;;;;6.20;4.63;;;;;;;12.25;100.00;100842.13;5009918;28;20117;-74
2024/03/22 07:27:10;;;;;;;5.10;3.65;;;;;;;11.65;100.00;100823.78;5028690;28;20030;-70
2024/03/22 07:29:35;;;;;;;3.95;3.50;;;;;;;12.67;100.00;100848.03;5028305;28;20033;-70
2024/03/22 07:32:01;;;;;;;5.85;3.08;;;;;;;13.10;100.00;100815.53;5028619;28;20108;-72
2024/03/22 07:34:26;;;;;;;4.78;3.80;;;;;;;12.52;100.00;100891.75;5027571;28;20091;-71
2024/03/22 07:36:52;;;;;;;4.25;3.13;;;;;;;11.96;100.00;100837.63;5026912;28;20037;-70
2024/03/22 07:39:22;;;;;;;4.78;3.60;;;;;;;12.05;100.00;100954.69;5027768;28;20060;-70
2024/03/22 07:41:49;;;;;;;3.47;2.75;;;;;;;12.52;100.00;100930.00;5027440;28;20047;-71
2024/03/22 07:44:17;;;;;;;3.35;2.55;;;;;;;11.87;100.00;100758.81;5028030;28;20022;-71
2024/03/22 07:46:44;;;;;;;3.53;2.72;;;;;;;13.59;100.00;100830.44;5027652;28;20044;-70
2024/03/22 07:49:09;;;;;;;3.55;3.00;;;;;;;13.26;100.00;100883.22;5027980;28;20396;-70
2024/03/22 07:51:34;;;;;;;3.38;2.92;;;;;;;13.85;100.00;100848.47;5027958;28;20099;-70
2024/03/22 07:54:00;;;;;;;3.20;2.90;;;;;;;13.63;100.00;100761.31;5027853;28;20460;-72
2024/03/22 07:56:25;;;;;;;5.95;4.97;;;;;;;13.36;100.00;100882.13;5027906;28;20072;-69
2024/03/22 07:58:51;;;;;;;5.90;4.30;;;;;;;13.26;100.00;100821.94;5027978;28;20496;-70
2024/03/22 08:01:17;;;;;;;4.30;2.78;;;;;;;12.87;100.00;100828.00;5026765;28;20044;-71
2024/03/22 08:03:43;;;;;;;2.95;2.50;;;;;;;12.73;100.00;100988.22;5027877;28;20029;-70
2024/03/22 08:06:08;;;;;;;3.67;2.70;;;;;;;12.94;100.00;100844.81;5008482;28;20029;-69
2024/03/22 08:08:34;;;;;;;4.85;2.90;;;;;;;13.14;100.00;100773.72;5027769;28;20040;-70
2024/03/22 08:10:59;;;;;;;4.15;3.58;;;;;;;14.03;100.00;100830.06;5009561;28;20045;-70
2024/03/22 08:13:25;;;;;;;3.90;3.30;;;;;;;13.01;100.00;100958.69;5027514;28;20444;-71
2024/03/22 08:15:50;;;;;;;3.47;3.15;;;;;;;14.03;100.00;100847.97;5028067;28;20033;-70
2024/03/22 08:18:16;;;;;;;3.90;3.35;;;;;;;13.32;100.00;100769.88;5028158;28;20026;-69
2024/03/22 08:20:41;;;;;;;5.68;3.30;;;;;;;13.62;100.00;100785.22;5010146;28;20040;-71
2024/03/22 08:23:07;;;;;;;4.82;4.20;;;;;;;12.27;100.00;100901.59;5027398;28;20030;-71
2024/03/22 08:25:33;;;;;;;6.13;5.53;;;;;;;12.38;100.00;101016.97;5026559;28;20115;-70
2024/03/22 08:27:59;;;;;;;4.72;3.33;;;;;;;13.28;100.00;100959.81;5026977;28;20037;-70
2024/03/22 08:30:25;;;;;;;5.43;3.20;;;;;;;13.01;100.00;100825.97;5027195;28;20060;-70
2024/03/22 08:32:52;;;;;;;3.83;3.05;;;;;;;13.16;100.00;100975.41;5026743;28;20037;-70
2024/03/22 08:35:17;;;;;;;4.35;2.88;;;;;;;14.35;100.00;100850.47;5025861;28;20483;-69
2024/03/22 08:37:44;;;;;;;3.42;3.10;;;;;;;13.89;100.00;100794.66;5011430;28;20038;-70
2024/03/22 08:40:10;;;;;;;7.57;6.18;;;;;;;14.00;100.00;100844.66;5012477;28;20045;-72
2024/03/22 08:42:36;;;;;;;4.65;3.25;;;;;;;14.17;100.00;100768.28;5011830;28;20021;-72
2024/03/22 08:45:04;;;;;;;3.35;2.90;;;;;;;13.44;100.00;100938.97;5030574;28;20098;-70
2024/03/22 08:47:30;;;;;;;3.22;2.65;;;;;;;14.36;100.00;100812.94;5013996;28;20037;-72
2024/03/22 08:49:57;;;;;;;2.85;2.28;;;;;;;13.50;100.00;100920.09;5031101;28;20041;-71
2024/03/22 08:52:23;;;;;;;3.30;2.70;;;;;;;14.50;100.00;100846.59;5031594;28;20057;-71
2024/03/22 08:54:50;;;;;;;2.90;2.28;;;;;;;14.63;100.00;100819.78;5013288;28;20520;-71
2024/03/22 08:57:26;;;;;;;3.28;2.83;;;;;;;15.46;100.00;100789.69;5029074;28;20037;-71
2024/03/22 08:59:53;;;;;;;4.57;3.65;;;;;;;15.48;100.00;100752.03;5028431;28;20045;-70
2024/03/22 09:02:18;;;;;;;3.38;2.40;;;;;;;15.03;100.00;100820.19;5028486;28;20037;-70
2024/03/22 09:04:44;;;;;;;2.78;2.28;;;;;;;14.42;100.00;100861.38;5031131;28;20040;-71
2024/03/22 09:07:09;;;;;;;2.47;2.28;;;;;;;14.81;100.00;100824.31;5013176;28;20026;-70
2024/03/22 09:09:35;;;;;;;2.50;2.30;;;;;;;14.41;100.00;100770.97;5030792;28;20025;-70
2024/03/22 09:12:00;;;;;;;3.28;2.70;;;;;;;15.27;100.00;100798.84;5030827;28;20063;-70
2024/03/22 09:14:25;;;;;;;4.97;4.20;;;;;;;15.65;100.00;100742.91;5012556;28;20033;-70
2024/03/22 09:16:51;;;;;;;2.80;2.42;;;;;;;16.32;100.00;100718.94;5013131;28;20576;-74
2024/03/22 09:19:16;;;;;;;2.55;2.35;;;;;;;16.17;100.00;100711.81;5012999;28;20033;-70
2024/03/22 09:21:42;;;;;;;9.07;7.28;;;;;;;15.27;100.00;100806.53;5030368;28;20404;-74
2024/03/22 09:24:08;;;;;;;3.63;3.15;;;;;;;14.95;100.00;100834.13;5029106;28;20420;-70
2024/03/22 09:26:33;;;;;;;3.20;2.80;;;;;;;15.02;100.00;100798.00;5030050;28;20040;-71
2024/03/22 09:28:59;;;;;;;2.40;2.05;;;;;;;15.80;100.00;100750.03;5030104;28;20033;-70
2024/03/22 09:31:24;;;;;;;2.75;2.55;;;;;;;16.13;100.00;100717.97;5012770;28;20116;-70
2024/03/22 09:33:54;;;;;;;4.72;3.67;;;;;;;15.81;100.00;100585.00;5030697;28;20037;-70
2024/03/22 09:36:20;;;;;;;7.30;6.40;;;;;;;17.02;100.00;100622.69;5029111;28;20036;-70
2024/03/22 09:38:46;;;;;;;4.05;2.60;;;;;;;16.66;100.00;100683.31;5030258;28;20048;-70
2024/03/22 09:41:14;;;;;;;4.13;2.88;;;;;;;16.16;100.00;100622.94;5012146;28;20025;-71
2024/03/22 09:43:39;;;;;;;7.35;6.30;;;;;;;16.23;100.00;100639.75;5011217;28;20060;-70
2024/03/22 09:46:06;;;;;;;4.22;2.50;;;;;;;15.98;100.00;100727.13;5012764;28;21932;-72
2024/03/22 09:48:33;;;;;;;6.00;2.30;;;;;;;15.04;100.00;100821.00;5028514;28;20025;-71
2024/03/22 09:50:59;;;;;;;2.80;2.40;;;;;;;15.81;100.00;100744.00;5029977;28;20033;-71
2024/03/22 09:53:26;;;;;;;2.95;2.38;;;;;;;16.42;100.00;100451.56;5030283;28;20034;-72
2024/03/22 09:55:57;;;;;;;4.15;2.30;;;;;;;15.17;100.00;100684.78;5028900;28;20049;-70
2024/03/22 09:58:23;;;;;;;2.42;2.20;;;;;;;14.69;100.00;100846.03;5030018;28;20107;-70
2024/03/22 10:00:48;;;;;;;3.22;2.50;;;;;;;14.20;100.00;100763.91;5028164;28;20063;-70
2024/03/22 10:03:14;;;;;;;3.70;2.15;;;;;;;16.22;100.00;100632.94;5028235;28;20025;-71
2024/03/22 10:05:39;;;;;;;3.58;2.50;;;;;;;17.07;100.00;100583.94;5029766;28;20588;-72
2024/03/22 10:08:08;;;;;;;3.20;2.00;;;;;;;16.79;100.00;100627.16;5027672;28;20423;-75
2024/03/22 10:10:33;;;;;;;7.88;5.95;;;;;;;15.80;100.00;100762.84;5008723;28;20060;-71
2024/03/22 10:13:01;;;;;;;3.30;2.30;;;;;;;17.07;100.00;100625.88;5028114;28;20499;-70
2024/03/22 10:15:27;;;;;;;2.00;1.80;;;;;;;17.03;100.00;100518.19;5028468;28;20053;-71
2024/03/22 10:17:55;;;;;;;2.88;2.00;;;;;;;17.94;100.00;100532.69;5028615;28;20079;-71
2024/03/22 10:20:20;;;;;;;2.92;2.08;;;;;;;18.12;100.00;100501.69;5011862;28;20029;-71
2024/03/22 10:22:55;;;;;;;3.83;3.13;;;;;;;17.14;100.00;100616.16;5029925;28;20530;-70
2024/03/22 10:25:21;;;;;;;3.40;2.45;;;;;;;15.53;100.00;100808.25;4679424;28;9999654;-70
2024/03/22 10:27:48;;;;;;;3.95;3.33;;;;;;;16.73;100.00;100547.78;5008993;28;20029;-69
2024/03/22 10:30:16;;;;;;;4.40;2.58;;;;;;;17.76;100.00;100577.31;5027052;28;20070;-71
2024/03/22 10:32:42;;;;;;;4.28;2.30;;;;;;;16.18;100.00;100605.75;5009484;28;20038;-70
2024/03/22 10:35:11;;;;;;;2.78;2.38;;;;;;;15.84;100.00;100505.41;5025028;28;21852;-72
2024/03/22 10:37:36;;;;;;;2.65;2.30;;;;;;;17.13;100.00;100599.09;5022957;28;20522;-71
2024/03/22 10:40:09;;;;;;;11.25;6.57;;;;;;;17.47;100.00;100599.19;5025544;28;20034;-71
2024/03/22 10:42:39;;;;;;;2.80;2.40;;;;;;;16.79;100.00;100519.28;5006640;28;20116;-72
2024/03/22 10:45:07;;;;;;;4.50;2.10;;;;;;;17.02;100.00;100647.53;5017610;28;20061;-71
2024/03/22 10:47:36;;;;;;;2.33;1.75;;;;;;;17.17;100.00;100621.97;5026440;28;20042;-70
2024/03/22 10:50:05;;;;;;;2.90;2.17;;;;;;;17.18;100.00;100622.81;5027747;28;20033;-72
2024/03/22 10:52:38;;;;;;;2.42;1.90;;;;;;;15.54;100.00;100646.72;5028770;28;20434;-71
2024/03/22 10:55:08;;;;;;;1.85;1.65;;;;;;;17.44;100.00;100542.78;5027863;28;20041;-72
2024/03/22 10:57:37;;;;;;;2.08;1.85;;;;;;;17.56;100.00;100559.41;5026594;28;20025;-72
2024/03/22 11:00:09;;;;;;;3.10;1.92;;;;;;;17.11;100.00;100362.72;5010925;28;20041;-71
2024/03/22 11:02:35;;;;;;;2.17;1.70;;;;;;;17.31;100.00;100475.69;5028424;28;20492;-71
2024/03/22 11:05:01;;;;;;;2.65;2.00;;;;;;;18.11;100.00;100488.91;5010360;28;20056;-74
2024/03/22 11:07:30;;;;;;;3.72;1.80;;;;;;;17.56;100.00;100567.97;5010973;28;20403;-70
2024/03/22 11:10:00;;;;;;;2.38;1.63;;;;;;;16.54;100.00;100581.13;5028168;28;20549;-73
2024/03/22 11:12:27;;;;;;;1.55;1.45;;;;;;;16.55;100.00;100495.53;5028573;28;20025;-70
2024/03/22 11:14:53;;;;;;;2.28;1.70;;;;;;;17.94;100.00;100401.47;5013048;28;20042;-71